sensor_id;sensor_type;location;lat;lon;timestamp;P1;durP1;ratioP1;P2;durP2;ratioP2
76745;SDS011;65671;49.976;20.038;2023-02-28T00:01:31;20.05;;;8.55;;
76745;SDS011;65671;49.976;20.038;2023-02-28T00:03:57;20.85;;;8.63;;
76745;SDS011;65671;49.976;20.038;2023-02-28T00:06:23;18.65;;;8.98;;
76745;SDS011;65671;49.976;20.038;2023-02-28T00:11:15;16.67;;;8.00;;
76745;SDS011;65671;49.976;20.038;2023-02-28T00:13:43;19.85;;;8.60;;
76745;SDS011;65671;49.976;20.038;2023-02-28T00:16:14;16.77;;;8.50;;
76745;SDS011;65671;49.976;20.038;2023-02-28T00:18:42;17.55;;;8.68;;
76745;SDS011;65671;49.976;20.038;2023-02-28T00:21:07;14.30;;;8.20;;
76745;SDS011;65671;49.976;20.038;2023-02-28T00:23:33;18.38;;;8.63;;
76745;SDS011;65671;49.976;20.038;2023-02-28T00:25:59;17.52;;;8.35;;
76745;SDS011;65671;49.976;20.038;2023-02-28T00:28:25;20.10;;;8.52;;
76745;SDS011;65671;49.976;20.038;2023-02-28T00:33:16;16.75;;;8.30;;
76745;SDS011;65671;49.976;20.038;2023-02-28T00:38:08;17.80;;;8.40;;
76745;SDS011;65671;49.976;20.038;2023-02-28T00:40:34;17.52;;;8.65;;
76745;SDS011;65671;49.976;20.038;2023-02-28T00:45:25;17.00;;;7.90;;
76745;SDS011;65671;49.976;20.038;2023-02-28T00:50:17;14.82;;;8.07;;
76745;SDS011;65671;49.976;20.038;2023-02-28T00:52:43;19.73;;;8.80;;
76745;SDS011;65671;49.976;20.038;2023-02-28T00:57:35;13.80;;;8.35;;
76745;SDS011;65671;49.976;20.038;2023-02-28T01:02:26;13.50;;;6.90;;
76745;SDS011;65671;49.976;20.038;2023-02-28T01:07:17;12.80;;;6.80;;
76745;SDS011;65671;49.976;20.038;2023-02-28T01:12:08;14.02;;;6.90;;
76745;SDS011;65671;49.976;20.038;2023-02-28T01:14:35;17.40;;;8.20;;
76745;SDS011;65671;49.976;20.038;2023-02-28T01:17:01;15.63;;;7.65;;
76745;SDS011;65671;49.976;20.038;2023-02-28T01:19:27;13.68;;;7.00;;
76745;SDS011;65671;49.976;20.038;2023-02-28T01:24:18;12.13;;;7.45;;
76745;SDS011;65671;49.976;20.038;2023-02-28T01:26:44;11.02;;;6.22;;
76745;SDS011;65671;49.976;20.038;2023-02-28T01:29:10;14.85;;;6.88;;
76745;SDS011;65671;49.976;20.038;2023-02-28T01:34:01;15.38;;;7.35;;
76745;SDS011;65671;49.976;20.038;2023-02-28T01:38:52;13.40;;;7.22;;
76745;SDS011;65671;49.976;20.038;2023-02-28T01:41:20;16.27;;;7.15;;
76745;SDS011;65671;49.976;20.038;2023-02-28T01:46:14;18.05;;;7.47;;
76745;SDS011;65671;49.976;20.038;2023-02-28T01:48:46;13.48;;;7.38;;
76745;SDS011;65671;49.976;20.038;2023-02-28T01:51:17;15.15;;;7.53;;
76745;SDS011;65671;49.976;20.038;2023-02-28T01:53:51;14.90;;;7.45;;
76745;SDS011;65671;49.976;20.038;2023-02-28T01:56:22;16.63;;;7.25;;
76745;SDS011;65671;49.976;20.038;2023-02-28T01:58:52;16.55;;;7.25;;
76745;SDS011;65671;49.976;20.038;2023-02-28T02:01:20;12.88;;;7.03;;
76745;SDS011;65671;49.976;20.038;2023-02-28T02:03:53;12.50;;;7.40;;
76745;SDS011;65671;49.976;20.038;2023-02-28T02:06:22;13.70;;;6.32;;
76745;SDS011;65671;49.976;20.038;2023-02-28T02:08:49;12.85;;;7.13;;
76745;SDS011;65671;49.976;20.038;2023-02-28T02:11:17;15.10;;;7.13;;
76745;SDS011;65671;49.976;20.038;2023-02-28T02:25:26;13.93;;;6.60;;
76745;SDS011;65671;49.976;20.038;2023-02-28T02:28:43;13.10;;;7.03;;
76745;SDS011;65671;49.976;20.038;2023-02-28T02:36:48;15.02;;;6.85;;
76745;SDS011;65671;49.976;20.038;2023-02-28T02:40:09;14.73;;;6.72;;
76745;SDS011;65671;49.976;20.038;2023-02-28T02:45:12;14.93;;;7.18;;
76745;SDS011;65671;49.976;20.038;2023-02-28T02:47:46;17.98;;;6.80;;
76745;SDS011;65671;49.976;20.038;2023-02-28T02:50:15;12.95;;;7.13;;
76745;SDS011;65671;49.976;20.038;2023-02-28T02:52:49;18.58;;;7.32;;
76745;SDS011;65671;49.976;20.038;2023-02-28T02:55:20;18.52;;;8.52;;
76745;SDS011;65671;49.976;20.038;2023-02-28T02:57:54;17.95;;;9.45;;
76745;SDS011;65671;49.976;20.038;2023-02-28T03:00:26;19.48;;;9.55;;
76745;SDS011;65671;49.976;20.038;2023-02-28T03:02:56;18.20;;;9.43;;
76745;SDS011;65671;49.976;20.038;2023-02-28T03:05:25;19.20;;;9.85;;
76745;SDS011;65671;49.976;20.038;2023-02-28T03:07:53;20.85;;;9.32;;
76745;SDS011;65671;49.976;20.038;2023-02-28T03:10:36;21.77;;;10.02;;
76745;SDS011;65671;49.976;20.038;2023-02-28T03:21:14;19.90;;;9.23;;
76745;SDS011;65671;49.976;20.038;2023-02-28T03:26:22;20.80;;;9.52;;
76745;SDS011;65671;49.976;20.038;2023-02-28T03:29:13;23.15;;;10.20;;
76745;SDS011;65671;49.976;20.038;2023-02-28T03:31:45;21.38;;;10.18;;
76745;SDS011;65671;49.976;20.038;2023-02-28T03:34:25;20.60;;;10.82;;
76745;SDS011;65671;49.976;20.038;2023-02-28T03:36:59;21.92;;;10.10;;
76745;SDS011;65671;49.976;20.038;2023-02-28T03:39:40;21.85;;;10.80;;
76745;SDS011;65671;49.976;20.038;2023-02-28T03:42:20;21.48;;;9.95;;
76745;SDS011;65671;49.976;20.038;2023-02-28T03:45:08;19.08;;;9.90;;
76745;SDS011;65671;49.976;20.038;2023-02-28T03:47:41;16.73;;;9.25;;
76745;SDS011;65671;49.976;20.038;2023-02-28T03:50:14;23.80;;;10.50;;
76745;SDS011;65671;49.976;20.038;2023-02-28T03:53:11;17.90;;;9.43;;
76745;SDS011;65671;49.976;20.038;2023-02-28T03:55:54;22.92;;;8.70;;
76745;SDS011;65671;49.976;20.038;2023-02-28T03:58:31;18.17;;;7.85;;
76745;SDS011;65671;49.976;20.038;2023-02-28T04:01:20;21.10;;;8.48;;
76745;SDS011;65671;49.976;20.038;2023-02-28T04:03:50;18.15;;;8.10;;
76745;SDS011;65671;49.976;20.038;2023-02-28T04:06:19;14.95;;;8.57;;
76745;SDS011;65671;49.976;20.038;2023-02-28T04:08:46;19.52;;;8.55;;
76745;SDS011;65671;49.976;20.038;2023-02-28T04:14:02;18.95;;;8.25;;
76745;SDS011;65671;49.976;20.038;2023-02-28T04:16:29;18.27;;;8.63;;
76745;SDS011;65671;49.976;20.038;2023-02-28T04:18:55;12.98;;;7.65;;
76745;SDS011;65671;49.976;20.038;2023-02-28T04:21:37;15.05;;;8.27;;
76745;SDS011;65671;49.976;20.038;2023-02-28T04:24:05;17.88;;;8.02;;
76745;SDS011;65671;49.976;20.038;2023-02-28T04:26:32;16.45;;;9.43;;
76745;SDS011;65671;49.976;20.038;2023-02-28T04:29:00;22.10;;;9.60;;
76745;SDS011;65671;49.976;20.038;2023-02-28T04:31:27;17.30;;;9.73;;
76745;SDS011;65671;49.976;20.038;2023-02-28T04:33:53;20.02;;;9.27;;
76745;SDS011;65671;49.976;20.038;2023-02-28T04:36:18;20.27;;;9.77;;
76745;SDS011;65671;49.976;20.038;2023-02-28T04:38:45;19.98;;;9.13;;
76745;SDS011;65671;49.976;20.038;2023-02-28T04:41:11;18.95;;;8.65;;
76745;SDS011;65671;49.976;20.038;2023-02-28T04:43:38;16.85;;;9.45;;
76745;SDS011;65671;49.976;20.038;2023-02-28T04:46:04;21.38;;;9.25;;
76745;SDS011;65671;49.976;20.038;2023-02-28T04:48:32;18.08;;;8.60;;
76745;SDS011;65671;49.976;20.038;2023-02-28T04:51:03;23.85;;;8.75;;
76745;SDS011;65671;49.976;20.038;2023-02-28T04:53:32;20.38;;;8.70;;
76745;SDS011;65671;49.976;20.038;2023-02-28T04:58:24;16.15;;;7.47;;
76745;SDS011;65671;49.976;20.038;2023-02-28T05:00:51;13.05;;;7.38;;
76745;SDS011;65671;49.976;20.038;2023-02-28T05:03:18;16.77;;;7.97;;
76745;SDS011;65671;49.976;20.038;2023-02-28T05:05:44;19.02;;;8.10;;
76745;SDS011;65671;49.976;20.038;2023-02-28T05:08:09;16.52;;;8.07;;
76745;SDS011;65671;49.976;20.038;2023-02-28T05:10:35;21.42;;;8.75;;
76745;SDS011;65671;49.976;20.038;2023-02-28T05:13:01;17.40;;;8.35;;
76745;SDS011;65671;49.976;20.038;2023-02-28T05:15:26;17.60;;;9.25;;
76745;SDS011;65671;49.976;20.038;2023-02-28T05:17:53;17.45;;;8.43;;
76745;SDS011;65671;49.976;20.038;2023-02-28T05:20:19;21.17;;;9.95;;
76745;SDS011;65671;49.976;20.038;2023-02-28T05:22:46;24.17;;;10.95;;
76745;SDS011;65671;49.976;20.038;2023-02-28T05:25:12;18.35;;;10.15;;
76745;SDS011;65671;49.976;20.038;2023-02-28T05:27:41;20.65;;;10.07;;
76745;SDS011;65671;49.976;20.038;2023-02-28T05:30:07;25.67;;;10.90;;
76745;SDS011;65671;49.976;20.038;2023-02-28T05:32:36;22.67;;;10.10;;
76745;SDS011;65671;49.976;20.038;2023-02-28T05:35:03;27.00;;;13.07;;
76745;SDS011;65671;49.976;20.038;2023-02-28T05:37:30;26.08;;;13.50;;
76745;SDS011;65671;49.976;20.038;2023-02-28T05:39:55;25.50;;;12.93;;
76745;SDS011;65671;49.976;20.038;2023-02-28T05:42:21;31.23;;;13.80;;
76745;SDS011;65671;49.976;20.038;2023-02-28T05:44:47;32.85;;;14.50;;
76745;SDS011;65671;49.976;20.038;2023-02-28T05:47:12;32.97;;;15.90;;
76745;SDS011;65671;49.976;20.038;2023-02-28T05:49:41;31.48;;;15.13;;
76745;SDS011;65671;49.976;20.038;2023-02-28T05:52:07;36.33;;;16.42;;
76745;SDS011;65671;49.976;20.038;2023-02-28T05:54:33;33.55;;;17.38;;
76745;SDS011;65671;49.976;20.038;2023-02-28T05:56:58;35.88;;;15.57;;
76745;SDS011;65671;49.976;20.038;2023-02-28T05:59:24;30.77;;;15.43;;
76745;SDS011;65671;49.976;20.038;2023-02-28T06:01:50;30.73;;;15.15;;
76745;SDS011;65671;49.976;20.038;2023-02-28T06:04:16;31.23;;;15.45;;
76745;SDS011;65671;49.976;20.038;2023-02-28T06:06:48;28.35;;;15.20;;
76745;SDS011;65671;49.976;20.038;2023-02-28T06:09:14;34.53;;;15.48;;
76745;SDS011;65671;49.976;20.038;2023-02-28T06:14:06;30.70;;;16.23;;
76745;SDS011;65671;49.976;20.038;2023-02-28T06:16:33;37.50;;;18.75;;
76745;SDS011;65671;49.976;20.038;2023-02-28T06:19:01;37.15;;;17.58;;
76745;SDS011;65671;49.976;20.038;2023-02-28T06:21:28;34.25;;;17.27;;
76745;SDS011;65671;49.976;20.038;2023-02-28T06:23:55;42.97;;;20.77;;
76745;SDS011;65671;49.976;20.038;2023-02-28T06:26:23;41.58;;;20.42;;
76745;SDS011;65671;49.976;20.038;2023-02-28T06:28:49;38.30;;;19.77;;
76745;SDS011;65671;49.976;20.038;2023-02-28T06:31:15;39.67;;;19.42;;
76745;SDS011;65671;49.976;20.038;2023-02-28T06:33:42;37.45;;;17.45;;
76745;SDS011;65671;49.976;20.038;2023-02-28T06:36:10;33.80;;;17.23;;
76745;SDS011;65671;49.976;20.038;2023-02-28T06:38:37;37.33;;;18.33;;
76745;SDS011;65671;49.976;20.038;2023-02-28T06:41:04;33.33;;;15.88;;
76745;SDS011;65671;49.976;20.038;2023-02-28T06:43:31;42.03;;;17.88;;
76745;SDS011;65671;49.976;20.038;2023-02-28T06:46:00;40.13;;;18.65;;
76745;SDS011;65671;49.976;20.038;2023-02-28T06:48:29;60.88;;;27.23;;
76745;SDS011;65671;49.976;20.038;2023-02-28T06:53:30;61.53;;;26.40;;
76745;SDS011;65671;49.976;20.038;2023-02-28T06:55:56;57.88;;;25.98;;
76745;SDS011;65671;49.976;20.038;2023-02-28T07:00:50;52.73;;;22.67;;
76745;SDS011;65671;49.976;20.038;2023-02-28T07:03:16;52.75;;;23.17;;
76745;SDS011;65671;49.976;20.038;2023-02-28T07:05:43;51.88;;;22.92;;
76745;SDS011;65671;49.976;20.038;2023-02-28T07:08:09;57.58;;;22.45;;
76745;SDS011;65671;49.976;20.038;2023-02-28T07:13:04;41.90;;;19.52;;
76745;SDS011;65671;49.976;20.038;2023-02-28T07:15:30;48.00;;;20.15;;
76745;SDS011;65671;49.976;20.038;2023-02-28T07:17:56;42.75;;;19.85;;
76745;SDS011;65671;49.976;20.038;2023-02-28T07:20:22;33.60;;;16.55;;
76745;SDS011;65671;49.976;20.038;2023-02-28T07:22:48;37.13;;;19.73;;
76745;SDS011;65671;49.976;20.038;2023-02-28T07:25:23;41.08;;;18.75;;
76745;SDS011;65671;49.976;20.038;2023-02-28T07:27:53;38.50;;;18.73;;
76745;SDS011;65671;49.976;20.038;2023-02-28T07:30:20;41.85;;;18.13;;
76745;SDS011;65671;49.976;20.038;2023-02-28T07:32:45;45.97;;;19.38;;
76745;SDS011;65671;49.976;20.038;2023-02-28T07:37:37;56.00;;;19.77;;
76745;SDS011;65671;49.976;20.038;2023-02-28T07:40:03;60.97;;;22.33;;
76745;SDS011;65671;49.976;20.038;2023-02-28T07:42:32;99.65;;;35.35;;
76745;SDS011;65671;49.976;20.038;2023-02-28T07:44:57;85.07;;;29.50;;
76745;SDS011;65671;49.976;20.038;2023-02-28T07:47:24;60.92;;;22.85;;
76745;SDS011;65671;49.976;20.038;2023-02-28T07:49:49;44.45;;;17.25;;
76745;SDS011;65671;49.976;20.038;2023-02-28T07:52:15;38.58;;;16.17;;
76745;SDS011;65671;49.976;20.038;2023-02-28T07:54:41;47.33;;;18.80;;
76745;SDS011;65671;49.976;20.038;2023-02-28T07:57:06;47.13;;;19.27;;
76745;SDS011;65671;49.976;20.038;2023-02-28T08:01:57;36.50;;;13.70;;
76745;SDS011;65671;49.976;20.038;2023-02-28T08:04:24;27.92;;;12.05;;
76745;SDS011;65671;49.976;20.038;2023-02-28T08:06:49;20.23;;;8.88;;
76745;SDS011;65671;49.976;20.038;2023-02-28T08:09:17;16.80;;;9.18;;
76745;SDS011;65671;49.976;20.038;2023-02-28T08:11:42;15.10;;;7.00;;
76745;SDS011;65671;49.976;20.038;2023-02-28T08:14:08;12.85;;;6.57;;
76745;SDS011;65671;49.976;20.038;2023-02-28T08:16:34;8.77;;;4.50;;
76745;SDS011;65671;49.976;20.038;2023-02-28T08:18:59;11.90;;;6.22;;
76745;SDS011;65671;49.976;20.038;2023-02-28T08:21:25;11.98;;;6.00;;
76745;SDS011;65671;49.976;20.038;2023-02-28T08:26:17;7.38;;;4.35;;
76745;SDS011;65671;49.976;20.038;2023-02-28T08:31:13;12.35;;;5.63;;
76745;SDS011;65671;49.976;20.038;2023-02-28T08:33:40;12.82;;;5.55;;
76745;SDS011;65671;49.976;20.038;2023-02-28T08:36:07;17.08;;;8.10;;
76745;SDS011;65671;49.976;20.038;2023-02-28T08:38:34;6.35;;;3.72;;
76745;SDS011;65671;49.976;20.038;2023-02-28T08:41:01;9.85;;;5.35;;
76745;SDS011;65671;49.976;20.038;2023-02-28T08:43:31;7.82;;;4.45;;
76745;SDS011;65671;49.976;20.038;2023-02-28T08:45:57;11.70;;;5.72;;
76745;SDS011;65671;49.976;20.038;2023-02-28T08:48:23;11.75;;;5.10;;
76745;SDS011;65671;49.976;20.038;2023-02-28T08:51:00;8.05;;;5.03;;
76745;SDS011;65671;49.976;20.038;2023-02-28T08:53:28;9.32;;;5.28;;
76745;SDS011;65671;49.976;20.038;2023-02-28T08:56:00;10.70;;;4.95;;
76745;SDS011;65671;49.976;20.038;2023-02-28T08:58:29;10.48;;;4.70;;
76745;SDS011;65671;49.976;20.038;2023-02-28T09:00:55;9.23;;;5.00;;
76745;SDS011;65671;49.976;20.038;2023-02-28T09:03:21;8.93;;;5.53;;
76745;SDS011;65671;49.976;20.038;2023-02-28T09:06:07;8.13;;;5.43;;
76745;SDS011;65671;49.976;20.038;2023-02-28T09:10:59;9.48;;;5.15;;
76745;SDS011;65671;49.976;20.038;2023-02-28T09:15:52;10.65;;;5.35;;
76745;SDS011;65671;49.976;20.038;2023-02-28T09:18:18;9.52;;;4.82;;
76745;SDS011;65671;49.976;20.038;2023-02-28T09:20:44;10.98;;;6.10;;
76745;SDS011;65671;49.976;20.038;2023-02-28T09:25:37;9.98;;;5.35;;
76745;SDS011;65671;49.976;20.038;2023-02-28T09:28:03;9.68;;;4.93;;
76745;SDS011;65671;49.976;20.038;2023-02-28T09:30:29;6.55;;;4.93;;
76745;SDS011;65671;49.976;20.038;2023-02-28T09:32:55;10.13;;;5.90;;
76745;SDS011;65671;49.976;20.038;2023-02-28T09:35:21;9.93;;;5.50;;
76745;SDS011;65671;49.976;20.038;2023-02-28T09:37:51;9.82;;;4.95;;
76745;SDS011;65671;49.976;20.038;2023-02-28T09:40:21;10.07;;;5.72;;
76745;SDS011;65671;49.976;20.038;2023-02-28T09:42:51;12.35;;;5.82;;
76745;SDS011;65671;49.976;20.038;2023-02-28T09:45:30;13.40;;;6.97;;
76745;SDS011;65671;49.976;20.038;2023-02-28T09:48:02;11.20;;;6.18;;
76745;SDS011;65671;49.976;20.038;2023-02-28T09:50:51;11.93;;;5.55;;
76745;SDS011;65671;49.976;20.038;2023-02-28T09:53:29;10.85;;;6.03;;
76745;SDS011;65671;49.976;20.038;2023-02-28T09:56:42;10.32;;;5.85;;
76745;SDS011;65671;49.976;20.038;2023-02-28T09:59:31;12.68;;;6.80;;
76745;SDS011;65671;49.976;20.038;2023-02-28T10:04:58;14.48;;;7.05;;
76745;SDS011;65671;49.976;20.038;2023-02-28T10:07:42;11.05;;;6.28;;
76745;SDS011;65671;49.976;20.038;2023-02-28T10:10:32;11.82;;;6.40;;
76745;SDS011;65671;49.976;20.038;2023-02-28T10:13:04;9.70;;;5.80;;
76745;SDS011;65671;49.976;20.038;2023-02-28T10:15:37;12.82;;;7.05;;
76745;SDS011;65671;49.976;20.038;2023-02-28T10:18:04;8.13;;;5.38;;
76745;SDS011;65671;49.976;20.038;2023-02-28T10:20:35;12.93;;;5.85;;
76745;SDS011;65671;49.976;20.038;2023-02-28T10:23:09;11.40;;;6.85;;
76745;SDS011;65671;49.976;20.038;2023-02-28T10:25:38;8.77;;;6.03;;
76745;SDS011;65671;49.976;20.038;2023-02-28T10:30:36;10.23;;;5.63;;
76745;SDS011;65671;49.976;20.038;2023-02-28T10:33:05;11.85;;;5.85;;
76745;SDS011;65671;49.976;20.038;2023-02-28T10:37:59;10.60;;;5.63;;
76745;SDS011;65671;49.976;20.038;2023-02-28T10:40:35;10.13;;;5.97;;
76745;SDS011;65671;49.976;20.038;2023-02-28T10:45:31;8.57;;;5.05;;
76745;SDS011;65671;49.976;20.038;2023-02-28T10:58:47;11.98;;;5.90;;
76745;SDS011;65671;49.976;20.038;2023-02-28T11:01:22;11.88;;;6.35;;
76745;SDS011;65671;49.976;20.038;2023-02-28T11:03:53;11.68;;;5.57;;
76745;SDS011;65671;49.976;20.038;2023-02-28T11:06:21;10.57;;;5.85;;
76745;SDS011;65671;49.976;20.038;2023-02-28T11:08:52;12.23;;;6.22;;
76745;SDS011;65671;49.976;20.038;2023-02-28T11:11:21;9.80;;;6.35;;
76745;SDS011;65671;49.976;20.038;2023-02-28T11:13:50;11.27;;;6.57;;
76745;SDS011;65671;49.976;20.038;2023-02-28T11:16:18;10.57;;;5.68;;
76745;SDS011;65671;49.976;20.038;2023-02-28T11:18:49;12.30;;;6.70;;
76745;SDS011;65671;49.976;20.038;2023-02-28T11:21:26;12.45;;;7.10;;
76745;SDS011;65671;49.976;20.038;2023-02-28T11:24:05;12.65;;;7.50;;
76745;SDS011;65671;49.976;20.038;2023-02-28T11:26:44;14.02;;;7.00;;
76745;SDS011;65671;49.976;20.038;2023-02-28T11:29:27;12.57;;;6.43;;
76745;SDS011;65671;49.976;20.038;2023-02-28T11:34:30;9.15;;;5.93;;
76745;SDS011;65671;49.976;20.038;2023-02-28T11:36:57;10.55;;;6.13;;
76745;SDS011;65671;49.976;20.038;2023-02-28T11:39:24;10.63;;;6.57;;
76745;SDS011;65671;49.976;20.038;2023-02-28T11:44:36;9.18;;;5.43;;
76745;SDS011;65671;49.976;20.038;2023-02-28T11:47:25;11.88;;;6.07;;
76745;SDS011;65671;49.976;20.038;2023-02-28T11:50:18;11.38;;;5.82;;
76745;SDS011;65671;49.976;20.038;2023-02-28T11:52:51;12.10;;;6.32;;
76745;SDS011;65671;49.976;20.038;2023-02-28T12:03:43;11.20;;;5.75;;
76745;SDS011;65671;49.976;20.038;2023-02-28T12:06:22;9.63;;;5.00;;
76745;SDS011;65671;49.976;20.038;2023-02-28T12:14:35;12.55;;;6.22;;
76745;SDS011;65671;49.976;20.038;2023-02-28T12:25:37;12.65;;;6.05;;
76745;SDS011;65671;49.976;20.038;2023-02-28T12:28:27;8.02;;;5.28;;
76745;SDS011;65671;49.976;20.038;2023-02-28T12:30:59;9.70;;;5.22;;
76745;SDS011;65671;49.976;20.038;2023-02-28T12:33:32;7.97;;;5.30;;
76745;SDS011;65671;49.976;20.038;2023-02-28T12:36:04;11.38;;;5.72;;
76745;SDS011;65671;49.976;20.038;2023-02-28T12:38:42;10.13;;;5.28;;
76745;SDS011;65671;49.976;20.038;2023-02-28T12:41:13;12.63;;;5.57;;
76745;SDS011;65671;49.976;20.038;2023-02-28T12:43:46;9.23;;;5.05;;
76745;SDS011;65671;49.976;20.038;2023-02-28T12:46:18;10.18;;;5.25;;
76745;SDS011;65671;49.976;20.038;2023-02-28T12:48:58;8.85;;;5.47;;
76745;SDS011;65671;49.976;20.038;2023-02-28T12:51:30;7.05;;;5.00;;
76745;SDS011;65671;49.976;20.038;2023-02-28T12:54:04;8.60;;;5.68;;
76745;SDS011;65671;49.976;20.038;2023-02-28T12:59:38;11.13;;;5.90;;
76745;SDS011;65671;49.976;20.038;2023-02-28T13:10:42;13.55;;;7.65;;
76745;SDS011;65671;49.976;20.038;2023-02-28T13:13:13;8.77;;;6.13;;
76745;SDS011;65671;49.976;20.038;2023-02-28T13:18:30;20.95;;;8.88;;
76745;SDS011;65671;49.976;20.038;2023-02-28T13:21:01;12.98;;;6.35;;
76745;SDS011;65671;49.976;20.038;2023-02-28T13:34:31;10.05;;;5.65;;
76745;SDS011;65671;49.976;20.038;2023-02-28T13:39:53;36.97;;;12.05;;
76745;SDS011;65671;49.976;20.038;2023-02-28T13:45:30;9.50;;;6.22;;
76745;SDS011;65671;49.976;20.038;2023-02-28T13:52:59;9.48;;;6.03;;
76745;SDS011;65671;49.976;20.038;2023-02-28T13:56:09;8.32;;;5.28;;
76745;SDS011;65671;49.976;20.038;2023-02-28T14:06:35;10.25;;;5.82;;
76745;SDS011;65671;49.976;20.038;2023-02-28T14:09:06;12.70;;;6.53;;
76745;SDS011;65671;49.976;20.038;2023-02-28T14:11:52;11.70;;;6.35;;
76745;SDS011;65671;49.976;20.038;2023-02-28T14:19:39;9.35;;;6.22;;
76745;SDS011;65671;49.976;20.038;2023-02-28T14:22:25;9.30;;;5.47;;
76745;SDS011;65671;49.976;20.038;2023-02-28T14:26:10;9.70;;;5.50;;
76745;SDS011;65671;49.976;20.038;2023-02-28T14:28:21;11.45;;;5.90;;
76745;SDS011;65671;49.976;20.038;2023-02-28T14:31:11;8.55;;;4.93;;
76745;SDS011;65671;49.976;20.038;2023-02-28T14:34:03;9.02;;;6.22;;
76745;SDS011;65671;49.976;20.038;2023-02-28T14:37:01;15.40;;;8.05;;
76745;SDS011;65671;49.976;20.038;2023-02-28T14:39:28;12.27;;;5.75;;
76745;SDS011;65671;49.976;20.038;2023-02-28T14:41:56;12.18;;;6.07;;
76745;SDS011;65671;49.976;20.038;2023-02-28T14:44:28;14.18;;;6.15;;
76745;SDS011;65671;49.976;20.038;2023-02-28T14:52:07;13.18;;;6.55;;
76745;SDS011;65671;49.976;20.038;2023-02-28T14:54:40;10.07;;;6.18;;
76745;SDS011;65671;49.976;20.038;2023-02-28T14:57:06;9.90;;;6.03;;
76745;SDS011;65671;49.976;20.038;2023-02-28T14:59:45;14.88;;;7.13;;
76745;SDS011;65671;49.976;20.038;2023-02-28T15:04:53;10.57;;;5.75;;
76745;SDS011;65671;49.976;20.038;2023-02-28T15:07:27;12.32;;;7.70;;
76745;SDS011;65671;49.976;20.038;2023-02-28T15:12:59;10.65;;;6.03;;
76745;SDS011;65671;49.976;20.038;2023-02-28T15:17:59;12.23;;;6.63;;
76745;SDS011;65671;49.976;20.038;2023-02-28T15:20:27;10.57;;;6.07;;
76745;SDS011;65671;49.976;20.038;2023-02-28T15:22:52;12.57;;;6.53;;
76745;SDS011;65671;49.976;20.038;2023-02-28T15:25:22;12.68;;;7.25;;
76745;SDS011;65671;49.976;20.038;2023-02-28T15:27:52;14.40;;;7.32;;
76745;SDS011;65671;49.976;20.038;2023-02-28T15:30:25;11.48;;;7.05;;
76745;SDS011;65671;49.976;20.038;2023-02-28T15:35:30;12.43;;;8.25;;
76745;SDS011;65671;49.976;20.038;2023-02-28T15:38:04;16.00;;;7.50;;
76745;SDS011;65671;49.976;20.038;2023-02-28T15:40:43;12.13;;;7.05;;
76745;SDS011;65671;49.976;20.038;2023-02-28T15:43:22;10.57;;;7.07;;
76745;SDS011;65671;49.976;20.038;2023-02-28T15:51:08;12.68;;;6.55;;
76745;SDS011;65671;49.976;20.038;2023-02-28T15:56:22;10.35;;;6.40;;
76745;SDS011;65671;49.976;20.038;2023-02-28T15:58:53;15.82;;;7.45;;
76745;SDS011;65671;49.976;20.038;2023-02-28T16:01:30;10.93;;;7.30;;
76745;SDS011;65671;49.976;20.038;2023-02-28T16:04:02;15.85;;;8.07;;
76745;SDS011;65671;49.976;20.038;2023-02-28T16:06:44;23.90;;;8.80;;
76745;SDS011;65671;49.976;20.038;2023-02-28T16:09:12;14.55;;;9.15;;
76745;SDS011;65671;49.976;20.038;2023-02-28T16:11:44;16.45;;;8.27;;
76745;SDS011;65671;49.976;20.038;2023-02-28T16:14:17;23.17;;;9.40;;
76745;SDS011;65671;49.976;20.038;2023-02-28T16:16:46;22.20;;;11.30;;
76745;SDS011;65671;49.976;20.038;2023-02-28T16:19:14;18.23;;;8.70;;
76745;SDS011;65671;49.976;20.038;2023-02-28T16:24:06;14.60;;;8.10;;
76745;SDS011;65671;49.976;20.038;2023-02-28T16:26:32;21.02;;;8.85;;
76745;SDS011;65671;49.976;20.038;2023-02-28T16:28:59;15.95;;;7.90;;
76745;SDS011;65671;49.976;20.038;2023-02-28T16:31:27;13.63;;;7.68;;
76745;SDS011;65671;49.976;20.038;2023-02-28T16:33:53;16.55;;;7.82;;
76745;SDS011;65671;49.976;20.038;2023-02-28T16:36:21;18.67;;;9.05;;
76745;SDS011;65671;49.976;20.038;2023-02-28T16:38:51;20.10;;;9.73;;
76745;SDS011;65671;49.976;20.038;2023-02-28T16:44:00;21.77;;;10.20;;
76745;SDS011;65671;49.976;20.038;2023-02-28T16:49:01;24.20;;;13.45;;
76745;SDS011;65671;49.976;20.038;2023-02-28T16:53:52;42.33;;;19.05;;
76745;SDS011;65671;49.976;20.038;2023-02-28T16:58:48;27.83;;;14.45;;
76745;SDS011;65671;49.976;20.038;2023-02-28T17:01:15;34.83;;;17.42;;
76745;SDS011;65671;49.976;20.038;2023-02-28T17:03:45;163.30;;;58.47;;
76745;SDS011;65671;49.976;20.038;2023-02-28T17:06:22;44.78;;;20.65;;
76745;SDS011;65671;49.976;20.038;2023-02-28T17:08:50;37.28;;;16.50;;
76745;SDS011;65671;49.976;20.038;2023-02-28T17:11:16;30.60;;;15.80;;
76745;SDS011;65671;49.976;20.038;2023-02-28T17:13:43;31.02;;;15.43;;
76745;SDS011;65671;49.976;20.038;2023-02-28T17:18:54;32.05;;;14.02;;
76745;SDS011;65671;49.976;20.038;2023-02-28T17:21:22;30.02;;;14.25;;
76745;SDS011;65671;49.976;20.038;2023-02-28T17:26:14;25.13;;;13.23;;
76745;SDS011;65671;49.976;20.038;2023-02-28T17:28:51;27.70;;;13.70;;
76745;SDS011;65671;49.976;20.038;2023-02-28T17:31:20;30.58;;;13.27;;
76745;SDS011;65671;49.976;20.038;2023-02-28T17:33:46;25.63;;;12.55;;
76745;SDS011;65671;49.976;20.038;2023-02-28T17:38:42;21.65;;;10.52;;
76745;SDS011;65671;49.976;20.038;2023-02-28T17:43:37;20.58;;;10.15;;
76745;SDS011;65671;49.976;20.038;2023-02-28T17:46:03;27.85;;;12.70;;
76745;SDS011;65671;49.976;20.038;2023-02-28T17:48:32;22.60;;;12.35;;
76745;SDS011;65671;49.976;20.038;2023-02-28T17:50:58;26.13;;;13.65;;
76745;SDS011;65671;49.976;20.038;2023-02-28T17:53:24;33.47;;;14.40;;
76745;SDS011;65671;49.976;20.038;2023-02-28T17:58:15;23.50;;;12.93;;
76745;SDS011;65671;49.976;20.038;2023-02-28T18:00:44;35.13;;;14.90;;
76745;SDS011;65671;49.976;20.038;2023-02-28T18:03:10;37.40;;;15.43;;
76745;SDS011;65671;49.976;20.038;2023-02-28T18:05:37;36.40;;;16.80;;
76745;SDS011;65671;49.976;20.038;2023-02-28T18:08:03;38.08;;;17.88;;
76745;SDS011;65671;49.976;20.038;2023-02-28T18:12:58;33.33;;;14.77;;
76745;SDS011;65671;49.976;20.038;2023-02-28T18:15:24;46.20;;;19.25;;
76745;SDS011;65671;49.976;20.038;2023-02-28T18:17:50;38.35;;;17.10;;
76745;SDS011;65671;49.976;20.038;2023-02-28T18:22:42;48.78;;;19.63;;
76745;SDS011;65671;49.976;20.038;2023-02-28T18:25:09;50.60;;;20.45;;
76745;SDS011;65671;49.976;20.038;2023-02-28T18:27:39;49.60;;;20.15;;
76745;SDS011;65671;49.976;20.038;2023-02-28T18:30:17;48.42;;;20.45;;
76745;SDS011;65671;49.976;20.038;2023-02-28T18:32:47;47.58;;;20.38;;
76745;SDS011;65671;49.976;20.038;2023-02-28T18:37:38;36.28;;;15.48;;
76745;SDS011;65671;49.976;20.038;2023-02-28T18:42:30;41.60;;;17.20;;
76745;SDS011;65671;49.976;20.038;2023-02-28T18:44:56;37.15;;;15.13;;
76745;SDS011;65671;49.976;20.038;2023-02-28T18:47:21;38.13;;;15.68;;
76745;SDS011;65671;49.976;20.038;2023-02-28T18:49:47;35.60;;;15.07;;